createdAt,value
2023-04-21T00:00:06.210Z,1021.97
2023-04-21T00:01:05.889Z,1022
2023-04-21T00:02:05.945Z,1021.96
2023-04-21T00:03:05.976Z,1021.97
2023-04-21T00:04:06.153Z,1021.96
2023-04-21T00:05:05.979Z,1021.96
2023-04-21T00:06:05.894Z,1021.92
2023-04-21T00:07:05.878Z,1021.9
2023-04-21T00:08:05.895Z,1021.87
2023-04-21T00:09:05.889Z,1021.87
2023-04-21T00:10:05.893Z,1021.87
2023-04-21T00:11:05.883Z,1021.89
2023-04-21T00:12:05.890Z,1021.87
2023-04-21T00:13:05.905Z,1021.88
2023-04-21T00:14:05.908Z,1021.95
2023-04-21T00:15:05.883Z,1021.95
2023-04-21T00:16:05.964Z,1021.91
2023-04-21T00:17:05.891Z,1021.91
2023-04-21T00:18:05.930Z,1021.91
2023-04-21T00:19:05.892Z,1021.91
2023-04-21T00:20:05.876Z,1021.86
2023-04-21T00:21:05.904Z,1021.89
2023-04-21T00:22:05.884Z,1021.86
2023-04-21T00:23:05.893Z,1021.92
2023-04-21T00:24:05.893Z,1021.88
2023-04-21T00:25:05.911Z,1021.9
2023-04-21T00:26:05.883Z,1021.89
2023-04-21T00:27:05.913Z,1021.88
2023-04-21T00:28:05.905Z,1021.9
2023-04-21T00:29:05.903Z,1021.89
2023-04-21T00:30:05.897Z,1021.88
2023-04-21T00:31:05.905Z,1021.89
2023-04-21T00:32:05.893Z,1021.88
2023-04-21T00:33:05.899Z,1021.89
2023-04-21T00:34:05.895Z,1021.91
2023-04-21T00:35:05.889Z,1021.9
2023-04-21T00:36:05.887Z,1021.86
2023-04-21T00:37:05.884Z,1021.91
2023-04-21T00:38:05.901Z,1021.86
2023-04-21T00:39:05.883Z,1021.89
2023-04-21T00:40:05.936Z,1021.91
2023-04-21T00:41:05.886Z,1021.88
2023-04-21T00:42:05.889Z,1021.87
2023-04-21T00:43:05.906Z,1021.87
2023-04-21T00:44:05.898Z,1021.87
2023-04-21T00:45:05.904Z,1021.87
2023-04-21T00:46:05.882Z,1021.87
2023-04-21T00:47:06.011Z,1021.84
2023-04-21T00:48:05.916Z,1021.87
2023-04-21T00:49:05.888Z,1021.89
2023-04-21T00:50:05.898Z,1021.83
2023-04-21T00:51:05.890Z,1021.87
2023-04-21T00:52:05.895Z,1021.9
2023-04-21T00:53:05.905Z,1021.89
2023-04-21T00:54:05.911Z,1021.87
2023-04-21T00:55:05.901Z,1021.86
2023-04-21T00:56:05.900Z,1021.84
2023-04-21T00:57:05.891Z,1021.85
2023-04-21T00:58:05.916Z,1021.84
2023-04-21T00:59:05.938Z,1021.86
2023-04-21T01:00:05.884Z,1021.81
2023-04-21T01:01:05.910Z,1021.85
2023-04-21T01:02:06.001Z,1021.85
2023-04-21T01:03:06.081Z,1021.86
2023-04-21T01:04:06.065Z,1021.8
2023-04-21T01:05:05.894Z,1021.8
2023-04-21T01:06:05.897Z,1021.79
2023-04-21T01:07:05.917Z,1021.79
2023-04-21T01:08:05.903Z,1021.77
2023-04-21T01:09:05.898Z,1021.79
2023-04-21T01:10:05.912Z,1021.77
2023-04-21T01:11:05.896Z,1021.78
2023-04-21T01:12:05.903Z,1021.75
2023-04-21T01:13:05.898Z,1021.73
2023-04-21T01:14:05.907Z,1021.77
2023-04-21T01:15:05.890Z,1021.78
2023-04-21T01:16:05.931Z,1021.77
2023-04-21T01:17:05.898Z,1021.8
2023-04-21T01:18:05.971Z,1021.74
2023-04-21T01:19:05.928Z,1021.74
2023-04-21T01:20:05.894Z,1021.79
2023-04-21T01:21:05.918Z,1021.75
2023-04-21T01:22:05.895Z,1021.74
2023-04-21T01:23:05.902Z,1021.75
2023-04-21T01:24:05.890Z,1021.77
2023-04-21T01:25:05.913Z,1021.77
2023-04-21T01:26:05.896Z,1021.78
2023-04-21T01:27:05.897Z,1021.73
2023-04-21T01:28:05.904Z,1021.75
2023-04-21T01:29:05.910Z,1021.75
2023-04-21T01:30:05.898Z,1021.77
2023-04-21T01:31:05.897Z,1021.75
2023-04-21T01:32:05.933Z,1021.73
2023-04-21T01:33:05.909Z,1021.71
2023-04-21T01:34:05.893Z,1021.72
2023-04-21T01:35:05.899Z,1021.72
2023-04-21T01:36:05.900Z,1021.73
2023-04-21T01:37:05.888Z,1021.75
2023-04-21T01:38:05.911Z,1021.71
2023-04-21T01:39:05.892Z,1021.72
2023-04-21T01:40:05.899Z,1021.7
2023-04-21T01:41:05.882Z,1021.67
2023-04-21T01:42:05.910Z,1021.65
2023-04-21T01:43:05.911Z,1021.68
2023-04-21T01:44:05.908Z,1021.72
2023-04-21T01:45:05.911Z,1021.73
2023-04-21T01:46:05.959Z,1021.77
2023-04-21T01:47:05.886Z,1021.76
2023-04-21T01:48:05.927Z,1021.75
2023-04-21T01:49:05.903Z,1021.74
2023-04-21T01:50:05.902Z,1021.76
2023-04-21T01:51:05.908Z,1021.7
2023-04-21T01:52:05.912Z,1021.75
2023-04-21T01:53:05.901Z,1021.7
2023-04-21T01:54:05.900Z,1021.68
2023-04-21T01:55:05.896Z,1021.7
2023-04-21T01:56:05.900Z,1021.66
2023-04-21T01:57:05.940Z,1021.64
2023-04-21T01:58:05.900Z,1021.63
2023-04-21T01:59:05.944Z,1021.61
2023-04-21T02:00:05.909Z,1021.63
2023-04-21T02:01:05.924Z,1021.64
2023-04-21T02:02:06.033Z,1021.59
2023-04-21T02:03:05.988Z,1021.61
2023-04-21T02:04:06.129Z,1021.6
2023-04-21T02:05:05.893Z,1021.59
2023-04-21T02:06:05.899Z,1021.56
2023-04-21T02:07:05.913Z,1021.53
2023-04-21T02:08:05.909Z,1021.54
2023-04-21T02:09:05.909Z,1021.55
2023-04-21T02:10:05.916Z,1021.55
2023-04-21T02:11:05.894Z,1021.54
2023-04-21T02:12:05.901Z,1021.52
2023-04-21T02:13:05.914Z,1021.5
2023-04-21T02:14:05.913Z,1021.49
2023-04-21T02:15:05.904Z,1021.45
2023-04-21T02:16:12.739Z,1021.52
2023-04-21T02:17:05.893Z,1021.51
2023-04-21T02:18:05.952Z,1021.47
2023-04-21T02:19:05.906Z,1021.47
2023-04-21T02:20:05.902Z,1021.45
2023-04-21T02:21:05.894Z,1021.47
2023-04-21T02:22:05.903Z,1021.48
2023-04-21T02:23:05.907Z,1021.45
2023-04-21T02:24:05.887Z,1021.49
2023-04-21T02:25:05.940Z,1021.47
2023-04-21T02:26:05.898Z,1021.45
2023-04-21T02:27:05.907Z,1021.49
2023-04-21T02:28:05.899Z,1021.5
2023-04-21T02:29:05.909Z,1021.5
2023-04-21T02:30:05.912Z,1021.49
2023-04-21T02:31:05.942Z,1021.52
2023-04-21T02:33:05.928Z,1021.47
2023-04-21T02:34:05.900Z,1021.48
2023-04-21T02:35:05.899Z,1021.54
2023-04-21T02:36:05.910Z,1021.56
2023-04-21T02:37:05.896Z,1021.53
2023-04-21T02:38:05.914Z,1021.57
2023-04-21T02:39:05.885Z,1021.55
2023-04-21T02:40:05.906Z,1021.56
2023-04-21T02:41:05.898Z,1021.56
2023-04-21T02:42:05.927Z,1021.54
2023-04-21T02:43:05.909Z,1021.5
2023-04-21T02:44:05.912Z,1021.51
2023-04-21T02:45:05.901Z,1021.5
2023-04-21T02:46:05.925Z,1021.5
2023-04-21T02:47:05.924Z,1021.48
2023-04-21T02:48:05.983Z,1021.52
2023-04-21T02:49:05.900Z,1021.5
2023-04-21T02:50:05.907Z,1021.53
2023-04-21T02:51:05.895Z,1021.48
2023-04-21T02:52:05.880Z,1021.52
2023-04-21T02:53:05.909Z,1021.5
2023-04-21T02:54:05.912Z,1021.45
2023-04-21T02:55:05.899Z,1021.48
2023-04-21T02:56:05.909Z,1021.48
2023-04-21T02:57:05.904Z,1021.5
2023-04-21T02:58:05.898Z,1021.49
2023-04-21T02:59:05.917Z,1021.44
2023-04-21T03:00:05.898Z,1021.4
2023-04-21T03:01:05.899Z,1021.41
2023-04-21T03:02:05.906Z,1021.35
2023-04-21T03:03:05.991Z,1021.34
2023-04-21T03:04:05.968Z,1021.36
2023-04-21T03:05:05.892Z,1021.35
2023-04-21T03:06:05.890Z,1021.37
2023-04-21T03:07:05.897Z,1021.37
2023-04-21T03:08:05.918Z,1021.4
2023-04-21T03:09:05.893Z,1021.36
2023-04-21T03:10:05.900Z,1021.33
2023-04-21T03:11:05.893Z,1021.4
2023-04-21T03:12:05.886Z,1021.35
2023-04-21T03:13:05.911Z,1021.31
2023-04-21T03:14:05.922Z,1021.32
2023-04-21T03:15:05.902Z,1021.32
2023-04-21T03:16:05.952Z,1021.35
2023-04-21T03:17:05.902Z,1021.3
2023-04-21T03:18:05.955Z,1021.32
2023-04-21T03:19:05.904Z,1021.32
2023-04-21T03:20:05.904Z,1021.33
2023-04-21T03:21:05.894Z,1021.33
2023-04-21T03:22:05.902Z,1021.38
2023-04-21T03:23:05.909Z,1021.39
2023-04-21T03:24:05.892Z,1021.38
2023-04-21T03:25:05.896Z,1021.39
2023-04-21T03:26:05.908Z,1021.37
2023-04-21T03:27:05.892Z,1021.38
2023-04-21T03:28:05.906Z,1021.34
2023-04-21T03:29:05.921Z,1021.35
2023-04-21T03:30:05.886Z,1021.31
2023-04-21T03:31:05.900Z,1021.35
2023-04-21T03:32:05.958Z,1021.34
2023-04-21T03:33:05.931Z,1021.35
2023-04-21T03:34:05.903Z,1021.36
2023-04-21T03:35:05.899Z,1021.33
2023-04-21T03:36:05.894Z,1021.35
2023-04-21T03:37:05.888Z,1021.35
2023-04-21T03:38:05.909Z,1021.38
2023-04-21T03:39:16.844Z,1021.42
2023-04-21T03:40:05.900Z,1021.37
2023-04-21T03:41:05.896Z,1021.38
2023-04-21T03:42:05.882Z,1021.39
2023-04-21T03:43:05.913Z,1021.4
2023-04-21T03:44:05.908Z,1021.42
2023-04-21T03:45:05.908Z,1021.41
2023-04-21T03:46:05.945Z,1021.41
2023-04-21T03:47:05.914Z,1021.34
2023-04-21T03:48:05.952Z,1021.38
2023-04-21T03:49:05.898Z,1021.39
2023-04-21T03:50:05.909Z,1021.41
2023-04-21T03:51:05.884Z,1021.41
2023-04-21T03:52:05.908Z,1021.41
2023-04-21T03:53:05.912Z,1021.41
2023-04-21T03:54:05.895Z,1021.38
2023-04-21T03:55:05.893Z,1021.41
2023-04-21T03:56:05.886Z,1021.42
2023-04-21T03:57:05.894Z,1021.38
2023-04-21T03:58:05.904Z,1021.42
2023-04-21T03:59:05.919Z,1021.41
2023-04-21T04:00:05.887Z,1021.41
2023-04-21T04:01:05.903Z,1021.43
2023-04-21T04:02:05.995Z,1021.43
2023-04-21T04:03:06.062Z,1021.49
2023-04-21T04:04:06.157Z,1021.44
2023-04-21T04:05:05.952Z,1021.48
2023-04-21T04:06:05.896Z,1021.4
2023-04-21T04:07:05.892Z,1021.42
2023-04-21T04:08:05.908Z,1021.44
2023-04-21T04:09:05.920Z,1021.48
2023-04-21T04:10:05.893Z,1021.52
2023-04-21T04:11:05.910Z,1021.52
2023-04-21T04:12:05.892Z,1021.55
2023-04-21T04:13:05.923Z,1021.58
2023-04-21T04:14:05.927Z,1021.61
2023-04-21T04:15:05.885Z,1021.57
2023-04-21T04:16:05.985Z,1021.61
2023-04-21T04:17:05.902Z,1021.57
2023-04-21T04:18:05.935Z,1021.56
2023-04-21T04:19:05.913Z,1021.56
2023-04-21T04:20:05.883Z,1021.59
2023-04-21T04:21:05.901Z,1021.57
2023-04-21T04:22:05.899Z,1021.58
2023-04-21T04:23:05.911Z,1021.58
2023-04-21T04:24:05.896Z,1021.53
2023-04-21T04:25:05.911Z,1021.56
2023-04-21T04:26:05.920Z,1021.53
2023-04-21T04:27:05.894Z,1021.58
2023-04-21T04:28:05.921Z,1021.56
2023-04-21T04:29:05.925Z,1021.58
2023-04-21T04:30:05.886Z,1021.59
2023-04-21T04:31:05.922Z,1021.55
2023-04-21T04:32:05.896Z,1021.51
2023-04-21T04:33:05.951Z,1021.57
2023-04-21T04:34:05.889Z,1021.56
2023-04-21T04:35:05.892Z,1021.57
2023-04-21T04:36:05.891Z,1021.56
2023-04-21T04:37:05.900Z,1021.56
2023-04-21T04:38:05.903Z,1021.59
2023-04-21T04:39:06.373Z,1021.57
2023-04-21T04:40:05.880Z,1021.58
2023-04-21T04:41:05.899Z,1021.6
2023-04-21T04:42:05.898Z,1021.61
2023-04-21T04:43:05.930Z,1021.57
2023-04-21T04:44:05.903Z,1021.6
2023-04-21T04:45:05.913Z,1021.61
2023-04-21T04:46:05.907Z,1021.62
2023-04-21T04:47:06.147Z,1021.62
2023-04-21T04:48:05.926Z,1021.61
2023-04-21T04:49:05.977Z,1021.59
2023-04-21T04:50:05.986Z,1021.61
2023-04-21T04:51:05.914Z,1021.61
2023-04-21T04:52:05.936Z,1021.63
2023-04-21T04:53:05.905Z,1021.64
2023-04-21T04:54:05.916Z,1021.62
2023-04-21T04:55:05.918Z,1021.64
2023-04-21T04:56:05.896Z,1021.61
2023-04-21T04:57:05.947Z,1021.64
2023-04-21T04:58:05.915Z,1021.66
2023-04-21T04:59:05.951Z,1021.68
2023-04-21T05:00:05.923Z,1021.68
2023-04-21T05:01:05.890Z,1021.67
2023-04-21T05:02:06.012Z,1021.68
2023-04-21T05:03:06.052Z,1021.67
2023-04-21T05:04:06.093Z,1021.72
2023-04-21T05:05:06.025Z,1021.77
2023-04-21T05:06:05.948Z,1021.74
2023-04-21T05:07:05.911Z,1021.75
2023-04-21T05:08:05.943Z,1021.79
2023-04-21T05:09:05.936Z,1021.76
2023-04-21T05:10:05.939Z,1021.76
2023-04-21T05:11:05.952Z,1021.77
2023-04-21T05:12:05.896Z,1021.72
2023-04-21T05:13:05.921Z,1021.77
2023-04-21T05:14:05.947Z,1021.74
2023-04-21T05:15:05.891Z,1021.73
2023-04-21T05:16:05.937Z,1021.71
2023-04-21T05:17:05.940Z,1021.73
2023-04-21T05:18:05.945Z,1021.75
2023-04-21T05:19:05.952Z,1021.75
2023-04-21T05:20:05.898Z,1021.77
2023-04-21T05:21:05.945Z,1021.77
2023-04-21T05:22:05.923Z,1021.74
2023-04-21T05:23:05.916Z,1021.79
2023-04-21T05:24:05.936Z,1021.81
2023-04-21T05:25:05.970Z,1021.8
2023-04-21T05:26:05.924Z,1021.79
2023-04-21T05:27:05.944Z,1021.8
2023-04-21T05:28:05.941Z,1021.82
2023-04-21T05:29:05.930Z,1021.78
2023-04-21T05:30:05.908Z,1021.81
2023-04-21T05:31:05.899Z,1021.79
2023-04-21T05:32:05.985Z,1021.79
2023-04-21T05:33:06.031Z,1021.76
2023-04-21T05:34:05.920Z,1021.75
2023-04-21T05:35:05.915Z,1021.77
2023-04-21T05:36:05.886Z,1021.79
2023-04-21T05:37:05.958Z,1021.76
2023-04-21T05:38:05.911Z,1021.78
2023-04-21T05:39:05.892Z,1021.76
2023-04-21T05:40:05.909Z,1021.79
2023-04-21T05:41:05.908Z,1021.8
2023-04-21T05:42:05.892Z,1021.83
2023-04-21T05:43:05.912Z,1021.8
2023-04-21T05:44:05.927Z,1021.84
2023-04-21T05:45:05.901Z,1021.81
2023-04-21T05:46:05.964Z,1021.8
2023-04-21T05:47:05.899Z,1021.78
2023-04-21T05:48:05.960Z,1021.77
2023-04-21T05:49:05.902Z,1021.7
2023-04-21T05:50:05.885Z,1021.67
2023-04-21T05:51:05.899Z,1021.66
2023-04-21T05:52:05.904Z,1021.66
2023-04-21T05:53:05.915Z,1021.62
2023-04-21T05:54:05.992Z,1021.62
2023-04-21T05:55:05.903Z,1021.65
2023-04-21T05:56:05.900Z,1021.65
2023-04-21T05:57:05.909Z,1021.65
2023-04-21T05:58:05.909Z,1021.65
2023-04-21T05:59:05.969Z,1021.63
2023-04-21T06:00:05.895Z,1021.63
2023-04-21T06:01:05.898Z,1021.63
2023-04-21T06:02:05.970Z,1021.61
2023-04-21T06:03:06.016Z,1021.6
2023-04-21T06:04:06.513Z,1021.64
2023-04-21T06:05:06.264Z,1021.65
2023-04-21T06:06:05.931Z,1021.62
2023-04-21T06:07:05.891Z,1021.6
2023-04-21T06:08:05.912Z,1021.6
2023-04-21T06:09:05.905Z,1021.6
2023-04-21T06:10:05.908Z,1021.61
2023-04-21T06:11:05.889Z,1021.61
2023-04-21T06:12:05.918Z,1021.61
2023-04-21T06:13:05.905Z,1021.6
2023-04-21T06:14:05.912Z,1021.6
2023-04-21T06:15:05.898Z,1021.59
2023-04-21T06:16:05.999Z,1021.58
2023-04-21T06:17:05.901Z,1021.6
2023-04-21T06:18:05.979Z,1021.61
2023-04-21T06:19:05.914Z,1021.61
2023-04-21T06:20:05.875Z,1021.59
2023-04-21T06:21:05.897Z,1021.61
2023-04-21T06:22:05.898Z,1021.58
2023-04-21T06:23:05.911Z,1021.57
2023-04-21T06:24:05.903Z,1021.57
2023-04-21T06:25:05.895Z,1021.51
2023-04-21T06:26:05.890Z,1021.56
2023-04-21T06:27:05.952Z,1021.53
2023-04-21T06:28:05.914Z,1021.52
2023-04-21T06:29:05.908Z,1021.49
2023-04-21T06:30:05.893Z,1021.51
2023-04-21T06:31:08.687Z,1021.52
2023-04-21T06:32:05.996Z,1021.5
2023-04-21T06:33:06.012Z,1021.52
2023-04-21T06:34:05.893Z,1021.49
2023-04-21T06:35:05.881Z,1021.45
2023-04-21T06:36:05.896Z,1021.44
2023-04-21T06:37:05.892Z,1021.47
2023-04-21T06:38:05.901Z,1021.49
2023-04-21T06:39:05.891Z,1021.5
2023-04-21T06:40:05.882Z,1021.49
2023-04-21T06:41:05.890Z,1021.4
2023-04-21T06:42:05.905Z,1021.39
2023-04-21T06:43:05.920Z,1021.43
2023-04-21T06:44:05.910Z,1021.38
2023-04-21T06:45:05.905Z,1021.44
2023-04-21T06:46:05.901Z,1021.41
2023-04-21T06:47:05.946Z,1021.41
2023-04-21T06:48:05.992Z,1021.38
2023-04-21T06:49:05.892Z,1021.38
2023-04-21T06:50:05.885Z,1021.4
2023-04-21T06:51:05.884Z,1021.4
2023-04-21T06:52:05.878Z,1021.38
2023-04-21T06:53:05.898Z,1021.38
2023-04-21T06:54:05.887Z,1021.34
2023-04-21T06:55:05.894Z,1021.31
2023-04-21T06:56:05.898Z,1021.3
2023-04-21T06:57:05.887Z,1021.3
2023-04-21T06:58:05.904Z,1021.32
2023-04-21T06:59:05.938Z,1021.33
2023-04-21T07:00:05.997Z,1021.31
2023-04-21T07:01:05.922Z,1021.29
2023-04-21T07:02:05.913Z,1021.29
2023-04-21T07:03:05.961Z,1021.31
2023-04-21T07:04:06.123Z,1021.27
2023-04-21T07:05:05.917Z,1021.27
2023-04-21T07:06:05.897Z,1021.22
2023-04-21T07:07:05.902Z,1021.24
2023-04-21T07:08:05.914Z,1021.26
2023-04-21T07:09:05.903Z,1021.27
2023-04-21T07:10:05.886Z,1021.25
2023-04-21T07:11:05.897Z,1021.22
2023-04-21T07:12:05.897Z,1021.17
2023-04-21T07:13:06.705Z,1021.2
2023-04-21T07:14:05.904Z,1021.16
2023-04-21T07:15:05.889Z,1021.16
2023-04-21T07:16:05.888Z,1021.16
2023-04-21T07:17:06.008Z,1021.15
2023-04-21T07:18:05.978Z,1021.14
2023-04-21T07:19:05.889Z,1021.14
2023-04-21T07:20:05.887Z,1021.14
2023-04-21T07:21:05.903Z,1021.12
2023-04-21T07:22:05.891Z,1021.17
2023-04-21T07:23:05.896Z,1021.13
2023-04-21T07:24:05.912Z,1021.16
2023-04-21T07:25:05.899Z,1021.14
2023-04-21T07:26:05.896Z,1021.12
2023-04-21T07:27:05.890Z,1021.12
2023-04-21T07:28:05.902Z,1021.09
2023-04-21T07:29:05.915Z,1021.11
2023-04-21T07:30:05.895Z,1021.06
2023-04-21T07:31:05.919Z,1021.08
2023-04-21T07:32:05.896Z,1021.07
2023-04-21T07:33:06.111Z,1021.09
2023-04-21T07:34:05.897Z,1021.09
2023-04-21T07:35:05.913Z,1021.08
2023-04-21T07:36:05.896Z,1021.09
2023-04-21T07:37:05.900Z,1021.07
2023-04-21T07:38:05.903Z,1021.05
2023-04-21T07:39:05.899Z,1021.02
2023-04-21T07:40:05.886Z,1021.02
2023-04-21T07:41:05.882Z,1020.99
2023-04-21T07:42:05.891Z,1020.98
2023-04-21T07:43:05.916Z,1020.97
2023-04-21T07:44:05.903Z,1020.96
2023-04-21T07:45:05.896Z,1020.92
2023-04-21T07:46:05.938Z,1020.93
2023-04-21T07:47:05.890Z,1020.87
2023-04-21T07:48:05.926Z,1020.89
2023-04-21T07:49:05.893Z,1020.88
2023-04-21T07:50:05.897Z,1020.9
2023-04-21T07:51:05.904Z,1020.87
2023-04-21T07:52:05.890Z,1020.86
2023-04-21T07:53:05.915Z,1020.84
2023-04-21T07:54:05.899Z,1020.82
2023-04-21T07:55:05.894Z,1020.82
2023-04-21T07:56:05.891Z,1020.85
2023-04-21T07:57:05.887Z,1020.86
2023-04-21T07:58:05.905Z,1020.87
2023-04-21T07:59:05.920Z,1020.81
2023-04-21T08:00:05.893Z,1020.81
2023-04-21T08:01:05.894Z,1020.83
2023-04-21T08:02:05.939Z,1020.84
2023-04-21T08:03:06.009Z,1020.83
2023-04-21T08:04:06.036Z,1020.83
2023-04-21T08:05:06.220Z,1020.78
2023-04-21T08:06:06.014Z,1020.79
2023-04-21T08:07:06.119Z,1020.79
2023-04-21T08:08:05.923Z,1020.78
2023-04-21T08:09:05.894Z,1020.72
2023-04-21T08:10:05.884Z,1020.7
2023-04-21T08:11:05.903Z,1020.67
2023-04-21T08:12:05.892Z,1020.66
2023-04-21T08:13:05.913Z,1020.67
2023-04-21T08:14:05.915Z,1020.71
2023-04-21T08:15:05.934Z,1020.64
2023-04-21T08:16:05.983Z,1020.64
2023-04-21T08:17:05.903Z,1020.63
2023-04-21T08:18:05.955Z,1020.63
2023-04-21T08:19:05.908Z,1020.63
2023-04-21T08:20:05.898Z,1020.62
2023-04-21T08:21:05.895Z,1020.6
2023-04-21T08:22:05.895Z,1020.66
2023-04-21T08:23:05.970Z,1020.6
2023-04-21T08:24:05.926Z,1020.56
2023-04-21T08:25:05.893Z,1020.6
2023-04-21T08:26:05.889Z,1020.57
2023-04-21T08:27:05.913Z,1020.58
2023-04-21T08:28:05.906Z,1020.52
2023-04-21T08:29:05.910Z,1020.59
2023-04-21T08:30:05.885Z,1020.56
2023-04-21T08:31:05.980Z,1020.48
2023-04-21T08:32:06.030Z,1020.5
2023-04-21T08:33:05.984Z,1020.48
2023-04-21T08:34:05.898Z,1020.51
2023-04-21T08:35:05.937Z,1020.49
2023-04-21T08:36:15.185Z,1020.42
2023-04-21T08:37:05.932Z,1020.45
2023-04-21T08:38:05.900Z,1020.46
2023-04-21T08:39:05.884Z,1020.37
2023-04-21T08:40:05.888Z,1020.43
2023-04-21T08:41:05.893Z,1020.4
2023-04-21T08:42:05.906Z,1020.42
2023-04-21T08:43:05.921Z,1020.43
2023-04-21T08:44:05.966Z,1020.41
2023-04-21T08:45:05.906Z,1020.4
2023-04-21T08:46:05.943Z,1020.4
2023-04-21T08:47:05.894Z,1020.39
2023-04-21T08:48:06.034Z,1020.38
2023-04-21T08:49:05.900Z,1020.34
2023-04-21T08:50:05.886Z,1020.41
2023-04-21T08:51:05.896Z,1020.33
2023-04-21T08:52:05.893Z,1020.32
2023-04-21T08:53:05.903Z,1020.31
2023-04-21T08:54:05.896Z,1020.29
2023-04-21T08:55:05.900Z,1020.29
2023-04-21T08:57:15.182Z,1020.29
2023-04-21T08:58:05.916Z,1020.34
2023-04-21T08:59:05.915Z,1020.35
2023-04-21T09:00:08.057Z,1020.34
2023-04-21T09:01:06.042Z,1020.39
2023-04-21T09:02:05.953Z,1020.37
2023-04-21T09:03:13.196Z,1020.31
2023-04-21T09:04:06.017Z,1020.39
2023-04-21T09:05:06.186Z,1020.37
2023-04-21T09:06:06.185Z,1020.32
2023-04-21T09:07:05.894Z,1020.35
2023-04-21T09:08:05.905Z,1020.36
2023-04-21T09:09:05.894Z,1020.45
2023-04-21T09:10:05.905Z,1020.31
2023-04-21T09:11:05.925Z,1020.28
2023-04-21T09:12:05.902Z,1020.25
2023-04-21T09:13:05.906Z,1020.29
2023-04-21T09:14:05.920Z,1020.35
2023-04-21T09:15:05.919Z,1020.24
2023-04-21T09:16:08.428Z,1020.19
2023-04-21T09:17:05.951Z,1020.28
2023-04-21T09:18:05.916Z,1020.21
2023-04-21T09:19:05.903Z,1020.21
2023-04-21T09:20:05.886Z,1020.49
2023-04-21T09:21:05.903Z,1020.22
2023-04-21T09:22:05.904Z,1020.06
2023-04-21T09:23:05.916Z,1020.08
2023-04-21T09:24:05.913Z,1020.19
2023-04-21T09:25:05.895Z,1020.04
2023-04-21T09:26:05.903Z,1020.12
2023-04-21T09:27:05.901Z,1020.11
2023-04-21T09:28:05.904Z,1020.17
2023-04-21T09:29:05.906Z,1020.27
2023-04-21T09:30:05.888Z,1020.12
2023-04-21T09:31:05.948Z,1020.09
2023-04-21T09:32:05.900Z,1020.03
2023-04-21T09:33:13.297Z,1019.97
2023-04-21T09:34:05.954Z,1020.11
2023-04-21T09:35:05.898Z,1019.98
2023-04-21T09:36:05.919Z,1020.13
2023-04-21T09:37:05.910Z,1020.29
2023-04-21T09:38:05.910Z,1020.08
2023-04-21T09:40:05.908Z,1020.2
2023-04-21T09:41:05.884Z,1019.99
2023-04-21T09:42:05.907Z,1020.08
2023-04-21T09:43:05.928Z,1020.25
2023-04-21T09:44:05.920Z,1020.14
2023-04-21T09:46:05.961Z,1019.93
2023-04-21T09:47:05.905Z,1019.96
2023-04-21T09:48:05.984Z,1019.87
2023-04-21T09:49:05.893Z,1020.27
2023-04-21T09:50:05.906Z,1019.87
2023-04-21T09:51:24.301Z,1020.01
2023-04-21T09:52:18.761Z,1019.93
2023-04-21T09:53:05.908Z,1020.19
2023-04-21T09:54:12.957Z,1020.03
2023-04-21T09:55:05.941Z,1019.9
2023-04-21T09:56:05.918Z,1020.09
2023-04-21T09:57:05.880Z,1020.09
2023-04-21T09:58:05.918Z,1019.98
2023-04-21T09:59:05.925Z,1020.03
2023-04-21T10:00:05.890Z,1019.88
2023-04-21T10:01:05.916Z,1019.85
2023-04-21T10:02:06.102Z,1019.76
2023-04-21T10:03:06.045Z,1019.88
2023-04-21T10:04:05.955Z,1019.8
2023-04-21T10:05:06.150Z,1019.81
2023-04-21T10:06:06.001Z,1020.02
2023-04-21T10:07:05.893Z,1019.78
2023-04-21T10:08:05.913Z,1019.85
2023-04-21T10:09:05.883Z,1019.8
2023-04-21T10:10:05.897Z,1019.82
2023-04-21T10:11:05.898Z,1019.95
2023-04-21T10:12:08.492Z,1020
2023-04-21T10:13:05.917Z,1019.72
2023-04-21T10:14:05.908Z,1019.84
2023-04-21T10:15:05.904Z,1020.05
2023-04-21T10:16:05.920Z,1019.75
2023-04-21T10:17:05.908Z,1019.74
2023-04-21T10:18:06.073Z,1019.7
2023-04-21T10:19:05.893Z,1019.7
2023-04-21T10:20:05.908Z,1019.85
2023-04-21T10:21:05.900Z,1019.72
2023-04-21T10:22:05.890Z,1019.74
2023-04-21T10:23:05.911Z,1019.69
2023-04-21T10:24:05.899Z,1019.69
2023-04-21T10:25:05.915Z,1019.71
2023-04-21T10:26:05.903Z,1019.82
2023-04-21T10:27:05.912Z,1019.71
2023-04-21T10:28:05.913Z,1019.69
2023-04-21T10:29:05.913Z,1019.64
2023-04-21T10:30:05.882Z,1019.7
2023-04-21T10:31:05.971Z,1019.62
2023-04-21T10:32:08.565Z,1019.67
2023-04-21T10:33:06.193Z,1019.67
2023-04-21T10:34:05.902Z,1019.76
2023-04-21T10:35:05.900Z,1019.81
2023-04-21T10:36:05.904Z,1019.68
2023-04-21T10:37:05.892Z,1019.77
2023-04-21T10:38:07.024Z,1019.65
2023-04-21T10:39:05.900Z,1019.63
2023-04-21T10:40:05.883Z,1019.61
2023-04-21T10:41:05.906Z,1019.79
2023-04-21T10:42:05.894Z,1019.63
2023-04-21T10:43:05.926Z,1019.56
2023-04-21T10:44:05.907Z,1019.54
2023-04-21T10:45:05.898Z,1019.49
2023-04-21T10:46:05.893Z,1019.53
2023-04-21T10:47:05.909Z,1019.49
2023-04-21T10:48:05.964Z,1019.48
2023-04-21T10:49:05.917Z,1019.45
2023-04-21T10:50:05.881Z,1019.47
2023-04-21T10:51:05.898Z,1019.44
2023-04-21T10:52:05.961Z,1019.53
2023-04-21T10:53:05.904Z,1019.47
2023-04-21T10:54:05.894Z,1019.43
2023-04-21T10:55:05.913Z,1019.45
2023-04-21T10:56:05.906Z,1019.41
2023-04-21T10:57:05.892Z,1019.45
2023-04-21T10:58:05.907Z,1019.38
2023-04-21T10:59:05.908Z,1019.39
2023-04-21T11:00:05.899Z,1019.34
2023-04-21T11:01:05.937Z,1019.35
2023-04-21T11:02:05.963Z,1019.27
2023-04-21T11:03:06.195Z,1019.32
2023-04-21T11:04:06.031Z,1019.47
2023-04-21T11:05:05.991Z,1019.48
2023-04-21T11:06:05.896Z,1019.27
2023-04-21T11:07:05.894Z,1019.27
2023-04-21T11:08:05.919Z,1019.24
2023-04-21T11:09:05.895Z,1019.26
2023-04-21T11:10:05.874Z,1019.26
2023-04-21T11:11:05.893Z,1019.22
2023-04-21T11:12:05.884Z,1019.17
2023-04-21T11:13:05.920Z,1019.17
2023-04-21T11:14:05.912Z,1019.17
2023-04-21T11:15:05.895Z,1019.16
2023-04-21T11:16:05.921Z,1019.1
2023-04-21T11:17:05.956Z,1019.15
2023-04-21T11:18:06.029Z,1019.11
2023-04-21T11:19:05.899Z,1019.11
2023-04-21T11:20:05.886Z,1019.13
2023-04-21T11:21:05.902Z,1019.16
2023-04-21T11:22:05.894Z,1019.16
2023-04-21T11:23:05.916Z,1019.15
2023-04-21T11:24:05.896Z,1019.08
2023-04-21T11:25:05.895Z,1019.15
2023-04-21T11:26:05.885Z,1019.07
2023-04-21T11:27:05.902Z,1019.1
2023-04-21T11:28:05.907Z,1019.11
2023-04-21T11:29:05.903Z,1019.06
2023-04-21T11:30:05.910Z,1019.05
2023-04-21T11:31:05.921Z,1019.05
2023-04-21T11:32:05.896Z,1019.03
2023-04-21T11:33:05.983Z,1019.01
2023-04-21T11:34:05.902Z,1019.05
2023-04-21T11:35:05.893Z,1019.01
2023-04-21T11:36:05.907Z,1019.01
2023-04-21T11:37:05.889Z,1018.94
2023-04-21T11:38:05.908Z,1019.05
2023-04-21T11:39:05.910Z,1019.04
2023-04-21T11:40:05.883Z,1019.08
2023-04-21T11:41:05.886Z,1019.09
2023-04-21T11:42:05.891Z,1019.08
2023-04-21T11:43:05.902Z,1019.06
2023-04-21T11:44:05.909Z,1019.06
2023-04-21T11:45:05.914Z,1019.04
2023-04-21T11:46:05.927Z,1019.12
2023-04-21T11:47:05.895Z,1019.08
2023-04-21T11:48:05.951Z,1019.08
2023-04-21T11:49:05.891Z,1019.02
2023-04-21T11:50:05.890Z,1019.03
2023-04-21T11:51:06.162Z,1018.99
2023-04-21T11:52:05.905Z,1019.01
2023-04-21T11:53:05.908Z,1019.02
2023-04-21T11:54:05.915Z,1019.04
2023-04-21T11:55:05.911Z,1018.99
2023-04-21T11:56:05.910Z,1018.99
2023-04-21T11:57:05.896Z,1019
2023-04-21T11:58:05.920Z,1019.02
2023-04-21T11:59:05.930Z,1019
2023-04-21T12:00:05.888Z,1019.06
2023-04-21T12:01:05.927Z,1019.1
2023-04-21T12:02:05.911Z,1019.03
2023-04-21T12:03:06.005Z,1019
2023-04-21T12:04:06.165Z,1019.03
2023-04-21T12:05:06.019Z,1019
2023-04-21T12:06:05.932Z,1018.91
2023-04-21T12:07:05.895Z,1018.85
2023-04-21T12:08:05.908Z,1018.85
2023-04-21T12:09:05.900Z,1019.03
2023-04-21T12:10:05.886Z,1018.91
2023-04-21T12:11:05.885Z,1018.95
2023-04-21T12:12:05.894Z,1018.91